sensor_id;sensor_type;location;lat;lon;timestamp;pressure;altitude;pressure_sealevel;temperature;humidity
52855;BME280;38719;51.418;7.286;2023-02-17T00:00:38;100218.25;;;9.78;84.30
52855;BME280;38719;51.418;7.286;2023-02-17T00:03:06;100228.25;;;9.71;84.52
52855;BME280;38719;51.418;7.286;2023-02-17T00:05:33;100227.84;;;9.82;84.18
52855;BME280;38719;51.418;7.286;2023-02-17T00:08:02;100227.69;;;9.87;84.13
52855;BME280;38719;51.418;7.286;2023-02-17T00:10:29;100223.13;;;9.90;83.93
52855;BME280;38719;51.418;7.286;2023-02-17T00:12:57;100231.19;;;9.87;84.53
52855;BME280;38719;51.418;7.286;2023-02-17T00:15:24;100218.34;;;9.98;84.22
52855;BME280;38719;51.418;7.286;2023-02-17T00:17:52;100223.66;;;9.98;83.91
52855;BME280;38719;51.418;7.286;2023-02-17T00:20:19;100218.72;;;9.89;84.31
52855;BME280;38719;51.418;7.286;2023-02-17T00:22:47;100215.00;;;9.93;83.66
52855;BME280;38719;51.418;7.286;2023-02-17T00:25:16;100210.38;;;9.98;83.73
52855;BME280;38719;51.418;7.286;2023-02-17T00:27:43;100199.16;;;9.90;84.17
52855;BME280;38719;51.418;7.286;2023-02-17T00:30:11;100208.34;;;10.05;83.44
52855;BME280;38719;51.418;7.286;2023-02-17T00:32:38;100203.53;;;10.15;83.60
52855;BME280;38719;51.418;7.286;2023-02-17T00:35:06;100201.06;;;10.10;83.65
52855;BME280;38719;51.418;7.286;2023-02-17T00:37:34;100199.03;;;9.93;83.84
52855;BME280;38719;51.418;7.286;2023-02-17T00:40:02;100201.69;;;9.93;84.06
52855;BME280;38719;51.418;7.286;2023-02-17T00:42:31;100195.28;;;9.99;84.05
52855;BME280;38719;51.418;7.286;2023-02-17T00:44:58;100191.41;;;10.08;83.98
52855;BME280;38719;51.418;7.286;2023-02-17T00:47:25;100186.56;;;9.95;84.03
52855;BME280;38719;51.418;7.286;2023-02-17T00:49:53;100179.25;;;10.00;84.05
52855;BME280;38719;51.418;7.286;2023-02-17T00:52:21;100180.25;;;9.98;84.56
52855;BME280;38719;51.418;7.286;2023-02-17T00:54:48;100178.13;;;9.84;85.14
52855;BME280;38719;51.418;7.286;2023-02-17T00:57:15;100180.41;;;9.93;84.84
52855;BME280;38719;51.418;7.286;2023-02-17T00:59:44;100171.34;;;9.99;84.98
52855;BME280;38719;51.418;7.286;2023-02-17T01:02:12;100180.06;;;10.03;84.46
52855;BME280;38719;51.418;7.286;2023-02-17T01:04:39;100181.31;;;9.94;85.01
52855;BME280;38719;51.418;7.286;2023-02-17T01:07:07;100172.38;;;9.95;85.54
52855;BME280;38719;51.418;7.286;2023-02-17T01:09:34;100179.00;;;10.07;84.76
52855;BME280;38719;51.418;7.286;2023-02-17T01:12:02;100168.13;;;10.13;84.40
52855;BME280;38719;51.418;7.286;2023-02-17T01:14:29;100167.75;;;10.00;85.14
52855;BME280;38719;51.418;7.286;2023-02-17T01:16:58;100177.41;;;10.03;84.87
52855;BME280;38719;51.418;7.286;2023-02-17T01:19:26;100174.50;;;10.09;84.66
52855;BME280;38719;51.418;7.286;2023-02-17T01:21:53;100164.84;;;10.06;84.79
52855;BME280;38719;51.418;7.286;2023-02-17T01:24:21;100150.66;;;10.06;85.16
52855;BME280;38719;51.418;7.286;2023-02-17T01:26:48;100146.78;;;10.14;84.81
52855;BME280;38719;51.418;7.286;2023-02-17T01:29:16;100153.91;;;10.14;84.73
52855;BME280;38719;51.418;7.286;2023-02-17T01:31:43;100152.88;;;9.94;85.45
52855;BME280;38719;51.418;7.286;2023-02-17T01:34:12;100147.94;;;9.85;86.07
52855;BME280;38719;51.418;7.286;2023-02-17T01:36:39;100146.75;;;9.92;86.31
52855;BME280;38719;51.418;7.286;2023-02-17T01:39:07;100139.91;;;10.09;85.91
52855;BME280;38719;51.418;7.286;2023-02-17T01:41:34;100136.25;;;9.89;86.25
52855;BME280;38719;51.418;7.286;2023-02-17T01:44:08;100132.47;;;9.95;86.13
52855;BME280;38719;51.418;7.286;2023-02-17T01:46:36;100130.78;;;9.92;85.65
52855;BME280;38719;51.418;7.286;2023-02-17T01:49:16;100130.25;;;9.84;86.58
52855;BME280;38719;51.418;7.286;2023-02-17T01:51:48;100131.75;;;9.91;86.33
52855;BME280;38719;51.418;7.286;2023-02-17T01:54:19;100126.66;;;10.07;86.19
52855;BME280;38719;51.418;7.286;2023-02-17T01:56:49;100123.78;;;9.91;86.24
52855;BME280;38719;51.418;7.286;2023-02-17T01:59:19;100120.59;;;9.81;87.60
52855;BME280;38719;51.418;7.286;2023-02-17T02:01:49;100115.53;;;9.97;87.21
52855;BME280;38719;51.418;7.286;2023-02-17T02:04:23;100117.81;;;10.07;86.31
52855;BME280;38719;51.418;7.286;2023-02-17T02:06:52;100113.66;;;9.99;86.61
52855;BME280;38719;51.418;7.286;2023-02-17T02:09:21;100107.56;;;9.97;87.16
52855;BME280;38719;51.418;7.286;2023-02-17T02:11:51;100107.84;;;9.90;87.30
52855;BME280;38719;51.418;7.286;2023-02-17T02:14:20;100104.09;;;9.95;86.72
52855;BME280;38719;51.418;7.286;2023-02-17T02:16:53;100106.84;;;9.92;87.31
52855;BME280;38719;51.418;7.286;2023-02-17T02:19:40;100107.59;;;9.96;87.17
52855;BME280;38719;51.418;7.286;2023-02-17T02:22:33;100103.34;;;9.92;87.89
52855;BME280;38719;51.418;7.286;2023-02-17T02:25:20;100103.59;;;10.08;86.96
52855;BME280;38719;51.418;7.286;2023-02-17T02:27:59;100093.50;;;9.94;86.99
52855;BME280;38719;51.418;7.286;2023-02-17T02:30:52;100100.78;;;9.89;87.90
52855;BME280;38719;51.418;7.286;2023-02-17T02:33:31;100097.09;;;9.93;87.38
52855;BME280;38719;51.418;7.286;2023-02-17T02:36:04;100110.16;;;9.99;87.04
52855;BME280;38719;51.418;7.286;2023-02-17T02:38:39;100106.75;;;9.95;86.75
52855;BME280;38719;51.418;7.286;2023-02-17T02:41:13;100109.72;;;10.10;86.58
52855;BME280;38719;51.418;7.286;2023-02-17T02:43:42;100106.00;;;10.14;85.80
52855;BME280;38719;51.418;7.286;2023-02-17T02:46:09;100106.19;;;10.09;86.20
52855;BME280;38719;51.418;7.286;2023-02-17T02:48:39;100089.28;;;10.10;86.04
52855;BME280;38719;51.418;7.286;2023-02-17T02:51:20;100087.94;;;10.22;85.82
52855;BME280;38719;51.418;7.286;2023-02-17T02:54:05;100085.13;;;10.25;85.12
52855;BME280;38719;51.418;7.286;2023-02-17T02:56:42;100082.97;;;10.13;85.44
52855;BME280;38719;51.418;7.286;2023-02-17T02:59:25;100081.13;;;10.15;85.43
52855;BME280;38719;51.418;7.286;2023-02-17T03:02:05;100067.16;;;10.10;85.24
52855;BME280;38719;51.418;7.286;2023-02-17T03:04:37;100075.03;;;10.33;84.58
52855;BME280;38719;51.418;7.286;2023-02-17T03:07:13;100071.66;;;10.51;83.99
52855;BME280;38719;51.418;7.286;2023-02-17T03:09:47;100061.50;;;10.60;82.96
52855;BME280;38719;51.418;7.286;2023-02-17T03:12:15;100051.84;;;10.58;82.60
52855;BME280;38719;51.418;7.286;2023-02-17T03:14:43;100063.75;;;10.49;82.93
52855;BME280;38719;51.418;7.286;2023-02-17T03:17:11;100059.75;;;10.39;83.79
52855;BME280;38719;51.418;7.286;2023-02-17T03:19:43;100070.34;;;10.40;83.39
52855;BME280;38719;51.418;7.286;2023-02-17T03:22:17;100059.31;;;10.27;83.83
52855;BME280;38719;51.418;7.286;2023-02-17T03:24:45;100061.84;;;10.30;83.43
52855;BME280;38719;51.418;7.286;2023-02-17T03:27:13;100066.69;;;10.43;84.03
52855;BME280;38719;51.418;7.286;2023-02-17T03:29:40;100067.59;;;10.42;83.22
52855;BME280;38719;51.418;7.286;2023-02-17T03:32:08;100068.63;;;10.60;82.89
52855;BME280;38719;51.418;7.286;2023-02-17T03:34:36;100055.50;;;10.55;82.32
52855;BME280;38719;51.418;7.286;2023-02-17T03:37:05;100059.31;;;10.50;82.93
52855;BME280;38719;51.418;7.286;2023-02-17T03:39:32;100062.25;;;10.43;83.39
52855;BME280;38719;51.418;7.286;2023-02-17T03:41:59;100057.19;;;10.36;83.04
52855;BME280;38719;51.418;7.286;2023-02-17T03:44:27;100050.78;;;10.41;83.59
52855;BME280;38719;51.418;7.286;2023-02-17T03:46:54;100056.03;;;10.43;83.21
52855;BME280;38719;51.418;7.286;2023-02-17T03:49:22;100067.84;;;10.36;82.93
52855;BME280;38719;51.418;7.286;2023-02-17T03:51:49;100063.50;;;10.55;82.27
52855;BME280;38719;51.418;7.286;2023-02-17T03:54:18;100066.69;;;10.43;82.60
52855;BME280;38719;51.418;7.286;2023-02-17T03:56:46;100067.81;;;10.37;83.07
52855;BME280;38719;51.418;7.286;2023-02-17T03:59:13;100076.88;;;10.54;82.65
52855;BME280;38719;51.418;7.286;2023-02-17T04:01:41;100077.19;;;10.67;81.94
52855;BME280;38719;51.418;7.286;2023-02-17T04:04:08;100078.63;;;10.55;81.64
52855;BME280;38719;51.418;7.286;2023-02-17T04:06:36;100083.22;;;10.72;81.68
52855;BME280;38719;51.418;7.286;2023-02-17T04:09:03;100088.25;;;10.57;81.40
52855;BME280;38719;51.418;7.286;2023-02-17T04:11:32;100086.72;;;10.72;81.45
52855;BME280;38719;51.418;7.286;2023-02-17T04:14:00;100088.41;;;10.75;81.49
52855;BME280;38719;51.418;7.286;2023-02-17T04:16:27;100079.09;;;10.64;81.51
52855;BME280;38719;51.418;7.286;2023-02-17T04:18:55;100079.47;;;10.55;81.83
52855;BME280;38719;51.418;7.286;2023-02-17T04:21:22;100090.38;;;10.49;81.83
52855;BME280;38719;51.418;7.286;2023-02-17T04:23:50;100084.06;;;10.52;81.75
52855;BME280;38719;51.418;7.286;2023-02-17T04:26:19;100080.19;;;10.38;82.14
52855;BME280;38719;51.418;7.286;2023-02-17T04:28:48;100081.94;;;10.60;82.26
52855;BME280;38719;51.418;7.286;2023-02-17T04:31:16;100081.47;;;10.71;80.99
52855;BME280;38719;51.418;7.286;2023-02-17T04:33:43;100083.13;;;10.53;81.11
52855;BME280;38719;51.418;7.286;2023-02-17T04:36:11;100090.00;;;10.58;81.43
52855;BME280;38719;51.418;7.286;2023-02-17T04:38:38;100072.03;;;10.63;81.56
52855;BME280;38719;51.418;7.286;2023-02-17T04:41:06;100073.03;;;10.61;80.15
52855;BME280;38719;51.418;7.286;2023-02-17T04:43:34;100065.50;;;10.50;81.55
52855;BME280;38719;51.418;7.286;2023-02-17T04:46:03;100062.16;;;10.45;81.21
52855;BME280;38719;51.418;7.286;2023-02-17T04:48:31;100050.25;;;10.54;81.97
52855;BME280;38719;51.418;7.286;2023-02-17T04:50:58;100053.09;;;10.49;81.74
52855;BME280;38719;51.418;7.286;2023-02-17T04:53:26;100056.91;;;10.64;80.46
52855;BME280;38719;51.418;7.286;2023-02-17T04:55:54;100044.59;;;10.61;80.98
52855;BME280;38719;51.418;7.286;2023-02-17T04:58:21;100058.03;;;10.58;81.32
52855;BME280;38719;51.418;7.286;2023-02-17T05:00:49;100038.75;;;10.53;80.92
52855;BME280;38719;51.418;7.286;2023-02-17T05:03:18;100041.44;;;10.52;81.56
52855;BME280;38719;51.418;7.286;2023-02-17T05:05:46;100039.69;;;10.52;81.50
52855;BME280;38719;51.418;7.286;2023-02-17T05:08:13;100042.19;;;10.55;80.99
52855;BME280;38719;51.418;7.286;2023-02-17T05:10:41;100039.88;;;10.68;81.02
52855;BME280;38719;51.418;7.286;2023-02-17T05:13:08;100034.84;;;10.60;81.16
52855;BME280;38719;51.418;7.286;2023-02-17T05:15:36;100043.53;;;10.66;81.02
52855;BME280;38719;51.418;7.286;2023-02-17T05:18:03;100057.50;;;10.71;80.68
52855;BME280;38719;51.418;7.286;2023-02-17T05:20:32;100065.88;;;10.61;80.99
52855;BME280;38719;51.418;7.286;2023-02-17T05:23:00;100071.88;;;10.67;80.31
52855;BME280;38719;51.418;7.286;2023-02-17T05:25:28;100077.41;;;10.83;80.18
52855;BME280;38719;51.418;7.286;2023-02-17T05:27:55;100064.22;;;10.79;80.75
52855;BME280;38719;51.418;7.286;2023-02-17T05:30:22;100064.16;;;10.81;79.57
52855;BME280;38719;51.418;7.286;2023-02-17T05:32:50;100054.44;;;10.80;79.54
52855;BME280;38719;51.418;7.286;2023-02-17T05:35:18;100041.06;;;10.61;80.33
52855;BME280;38719;51.418;7.286;2023-02-17T05:37:47;100049.16;;;10.58;80.96
52855;BME280;38719;51.418;7.286;2023-02-17T05:40:14;100038.75;;;10.53;81.16
52855;BME280;38719;51.418;7.286;2023-02-17T05:42:42;100052.84;;;10.55;81.15
52855;BME280;38719;51.418;7.286;2023-02-17T05:45:09;100047.97;;;10.65;80.84
52855;BME280;38719;51.418;7.286;2023-02-17T05:47:37;100047.13;;;10.64;80.26
52855;BME280;38719;51.418;7.286;2023-02-17T05:50:06;100044.66;;;10.60;81.01
52855;BME280;38719;51.418;7.286;2023-02-17T05:52:33;100053.03;;;10.71;80.29
52855;BME280;38719;51.418;7.286;2023-02-17T05:55:02;100053.50;;;10.81;80.84
52855;BME280;38719;51.418;7.286;2023-02-17T05:57:30;100047.63;;;10.73;80.27
52855;BME280;38719;51.418;7.286;2023-02-17T05:59:58;100043.84;;;10.78;79.72
52855;BME280;38719;51.418;7.286;2023-02-17T06:02:25;100032.06;;;10.63;80.88
52855;BME280;38719;51.418;7.286;2023-02-17T06:04:53;100038.72;;;10.74;81.17
52855;BME280;38719;51.418;7.286;2023-02-17T06:07:20;100029.72;;;10.76;80.66
52855;BME280;38719;51.418;7.286;2023-02-17T06:09:48;100022.81;;;10.72;80.49
52855;BME280;38719;51.418;7.286;2023-02-17T06:12:17;100031.72;;;10.71;81.25
52855;BME280;38719;51.418;7.286;2023-02-17T06:14:44;100025.41;;;10.74;80.57
52855;BME280;38719;51.418;7.286;2023-02-17T06:17:12;100022.69;;;10.55;81.03
52855;BME280;38719;51.418;7.286;2023-02-17T06:19:39;100036.31;;;10.68;80.71
52855;BME280;38719;51.418;7.286;2023-02-17T06:22:07;100025.16;;;10.59;81.90
52855;BME280;38719;51.418;7.286;2023-02-17T06:24:34;100025.41;;;10.74;81.19
52855;BME280;38719;51.418;7.286;2023-02-17T06:27:02;100033.94;;;10.61;81.26
52855;BME280;38719;51.418;7.286;2023-02-17T06:29:31;100028.28;;;10.69;81.07
52855;BME280;38719;51.418;7.286;2023-02-17T06:31:59;100033.94;;;10.61;81.44
52855;BME280;38719;51.418;7.286;2023-02-17T06:34:27;100024.34;;;10.57;81.45
52855;BME280;38719;51.418;7.286;2023-02-17T06:36:54;100038.06;;;10.69;81.25
52855;BME280;38719;51.418;7.286;2023-02-17T06:39:22;100039.91;;;10.67;81.94
52855;BME280;38719;51.418;7.286;2023-02-17T06:41:49;100033.00;;;10.62;81.77
52855;BME280;38719;51.418;7.286;2023-02-17T06:44:17;100042.44;;;10.49;82.34
52855;BME280;38719;51.418;7.286;2023-02-17T06:46:46;100036.19;;;10.50;82.92
52855;BME280;38719;51.418;7.286;2023-02-17T06:49:13;100028.59;;;10.61;82.43
52855;BME280;38719;51.418;7.286;2023-02-17T06:51:41;100030.50;;;10.59;82.76
52855;BME280;38719;51.418;7.286;2023-02-17T06:54:09;100032.69;;;10.50;82.75
52855;BME280;38719;51.418;7.286;2023-02-17T06:56:36;100037.31;;;10.65;82.57
52855;BME280;38719;51.418;7.286;2023-02-17T06:59:04;100047.91;;;10.67;82.21
52855;BME280;38719;51.418;7.286;2023-02-17T07:01:31;100051.53;;;10.66;82.28
52855;BME280;38719;51.418;7.286;2023-02-17T07:04:00;100038.66;;;10.75;82.40
52855;BME280;38719;51.418;7.286;2023-02-17T07:06:28;100043.56;;;10.85;81.74
52855;BME280;38719;51.418;7.286;2023-02-17T07:08:55;100046.19;;;10.66;83.01
52855;BME280;38719;51.418;7.286;2023-02-17T07:11:23;100034.75;;;10.63;83.03
52855;BME280;38719;51.418;7.286;2023-02-17T07:13:52;100032.28;;;10.59;83.80
52855;BME280;38719;51.418;7.286;2023-02-17T07:16:19;100030.69;;;10.55;84.57
52855;BME280;38719;51.418;7.286;2023-02-17T07:18:47;100048.13;;;10.62;85.08
52855;BME280;38719;51.418;7.286;2023-02-17T07:21:16;100038.28;;;10.43;85.75
52855;BME280;38719;51.418;7.286;2023-02-17T07:23:44;100036.81;;;10.57;85.29
52855;BME280;38719;51.418;7.286;2023-02-17T07:26:13;100043.06;;;10.56;85.86
52855;BME280;38719;51.418;7.286;2023-02-17T07:28:40;100053.75;;;10.33;86.51
52855;BME280;38719;51.418;7.286;2023-02-17T07:31:10;100043.34;;;10.50;86.25
52855;BME280;38719;51.418;7.286;2023-02-17T07:33:38;100036.13;;;10.52;86.17
52855;BME280;38719;51.418;7.286;2023-02-17T07:36:07;100051.56;;;10.64;85.27
52855;BME280;38719;51.418;7.286;2023-02-17T07:38:37;100052.31;;;10.47;85.87
52855;BME280;38719;51.418;7.286;2023-02-17T07:41:06;100053.38;;;10.43;86.46
52855;BME280;38719;51.418;7.286;2023-02-17T07:43:33;100061.16;;;10.47;86.76
52855;BME280;38719;51.418;7.286;2023-02-17T07:46:04;100044.47;;;10.44;86.27
52855;BME280;38719;51.418;7.286;2023-02-17T07:48:33;100037.41;;;10.63;86.23
52855;BME280;38719;51.418;7.286;2023-02-17T07:51:03;100038.13;;;10.67;85.39
52855;BME280;38719;51.418;7.286;2023-02-17T07:53:32;100042.84;;;10.60;86.28
52855;BME280;38719;51.418;7.286;2023-02-17T07:56:02;100042.19;;;10.76;84.80
52855;BME280;38719;51.418;7.286;2023-02-17T07:58:31;100034.41;;;10.71;85.04
52855;BME280;38719;51.418;7.286;2023-02-17T08:01:04;100029.78;;;10.75;84.62
52855;BME280;38719;51.418;7.286;2023-02-17T08:03:31;100020.06;;;10.74;84.94
52855;BME280;38719;51.418;7.286;2023-02-17T08:06:01;100015.81;;;10.70;84.87
52855;BME280;38719;51.418;7.286;2023-02-17T08:08:29;100023.53;;;10.55;85.30
52855;BME280;38719;51.418;7.286;2023-02-17T08:11:15;100030.41;;;10.61;85.80
52855;BME280;38719;51.418;7.286;2023-02-17T08:14:01;100044.19;;;10.71;84.70
52855;BME280;38719;51.418;7.286;2023-02-17T08:16:28;100023.69;;;10.52;85.92
52855;BME280;38719;51.418;7.286;2023-02-17T08:18:56;100028.34;;;10.68;85.66
52855;BME280;38719;51.418;7.286;2023-02-17T08:21:25;100021.16;;;10.70;85.18
52855;BME280;38719;51.418;7.286;2023-02-17T08:23:53;100020.72;;;10.79;83.83
52855;BME280;38719;51.418;7.286;2023-02-17T08:26:22;100023.16;;;10.64;85.27
52855;BME280;38719;51.418;7.286;2023-02-17T08:28:50;100017.94;;;10.82;84.32
52855;BME280;38719;51.418;7.286;2023-02-17T08:31:19;100031.06;;;10.87;83.32
52855;BME280;38719;51.418;7.286;2023-02-17T08:33:47;100024.84;;;10.86;83.98
52855;BME280;38719;51.418;7.286;2023-02-17T08:36:15;100024.66;;;10.91;83.90
52855;BME280;38719;51.418;7.286;2023-02-17T08:38:42;100018.47;;;10.90;83.36
52855;BME280;38719;51.418;7.286;2023-02-17T08:41:15;100031.25;;;10.82;83.78
52855;BME280;38719;51.418;7.286;2023-02-17T08:43:44;100016.09;;;10.84;83.78
52855;BME280;38719;51.418;7.286;2023-02-17T08:46:12;100021.34;;;11.05;82.71
52855;BME280;38719;51.418;7.286;2023-02-17T08:48:40;100012.53;;;10.84;83.81
52855;BME280;38719;51.418;7.286;2023-02-17T08:51:11;100009.03;;;10.83;83.93
52855;BME280;38719;51.418;7.286;2023-02-17T08:53:54;100011.06;;;10.76;84.47
52855;BME280;38719;51.418;7.286;2023-02-17T08:56:37;100005.28;;;10.67;85.57
52855;BME280;38719;51.418;7.286;2023-02-17T08:59:08;100006.44;;;10.82;84.61
52855;BME280;38719;51.418;7.286;2023-02-17T09:01:37;100009.94;;;10.82;84.72
52855;BME280;38719;51.418;7.286;2023-02-17T09:04:06;100027.59;;;11.04;82.51
52855;BME280;38719;51.418;7.286;2023-02-17T09:06:36;100017.19;;;11.18;81.74
52855;BME280;38719;51.418;7.286;2023-02-17T09:09:05;100016.81;;;11.07;82.52
52855;BME280;38719;51.418;7.286;2023-02-17T09:11:33;100013.63;;;10.99;82.83
52855;BME280;38719;51.418;7.286;2023-02-17T09:14:01;100020.28;;;11.09;81.62
52855;BME280;38719;51.418;7.286;2023-02-17T09:16:30;100032.88;;;11.24;82.21
52855;BME280;38719;51.418;7.286;2023-02-17T09:18:57;100032.09;;;11.22;81.90
52855;BME280;38719;51.418;7.286;2023-02-17T09:21:25;100038.41;;;11.01;83.16
52855;BME280;38719;51.418;7.286;2023-02-17T09:23:52;100029.63;;;10.99;82.94
52855;BME280;38719;51.418;7.286;2023-02-17T09:26:21;100028.28;;;11.09;83.25
52855;BME280;38719;51.418;7.286;2023-02-17T09:28:48;100029.78;;;11.15;82.50
52855;BME280;38719;51.418;7.286;2023-02-17T09:31:18;100038.88;;;11.29;81.37
52855;BME280;38719;51.418;7.286;2023-02-17T09:33:48;100014.44;;;11.39;80.49
52855;BME280;38719;51.418;7.286;2023-02-17T09:36:18;100025.88;;;11.41;81.01
52855;BME280;38719;51.418;7.286;2023-02-17T09:38:46;100017.56;;;11.49;80.20
52855;BME280;38719;51.418;7.286;2023-02-17T09:41:17;100045.56;;;11.57;81.04
52855;BME280;38719;51.418;7.286;2023-02-17T09:43:45;100026.91;;;11.57;79.62
52855;BME280;38719;51.418;7.286;2023-02-17T09:46:16;100025.72;;;11.82;79.34
52855;BME280;38719;51.418;7.286;2023-02-17T09:48:48;100026.09;;;11.55;81.07
52855;BME280;38719;51.418;7.286;2023-02-17T09:51:21;100020.19;;;11.68;80.21
52855;BME280;38719;51.418;7.286;2023-02-17T09:53:59;100025.38;;;11.71;79.87
52855;BME280;38719;51.418;7.286;2023-02-17T09:56:33;100019.59;;;11.80;79.11
52855;BME280;38719;51.418;7.286;2023-02-17T09:59:05;100019.44;;;11.83;79.39
52855;BME280;38719;51.418;7.286;2023-02-17T10:01:35;100029.94;;;11.86;79.66
52855;BME280;38719;51.418;7.286;2023-02-17T10:04:07;100043.16;;;11.89;78.00
52855;BME280;38719;51.418;7.286;2023-02-17T10:06:42;100036.53;;;11.98;79.32
52855;BME280;38719;51.418;7.286;2023-02-17T10:09:14;100035.16;;;11.89;78.27
52855;BME280;38719;51.418;7.286;2023-02-17T10:11:47;100037.66;;;11.92;79.74
52855;BME280;38719;51.418;7.286;2023-02-17T10:14:21;100036.69;;;12.13;78.95
52855;BME280;38719;51.418;7.286;2023-02-17T10:16:56;100025.47;;;12.23;78.23
52855;BME280;38719;51.418;7.286;2023-02-17T10:19:28;100026.97;;;12.12;77.80
52855;BME280;38719;51.418;7.286;2023-02-17T10:22:01;100030.88;;;12.04;79.48
52855;BME280;38719;51.418;7.286;2023-02-17T10:24:32;100037.47;;;12.15;78.32
52855;BME280;38719;51.418;7.286;2023-02-17T10:29:54;100051.31;;;12.23;78.15
52855;BME280;38719;51.418;7.286;2023-02-17T10:32:27;100062.19;;;12.01;77.96
52855;BME280;38719;51.418;7.286;2023-02-17T10:35:09;100053.00;;;12.06;79.04
52855;BME280;38719;51.418;7.286;2023-02-17T10:37:44;100061.72;;;12.10;78.47
52855;BME280;38719;51.418;7.286;2023-02-17T10:40:17;100069.84;;;12.26;78.36
52855;BME280;38719;51.418;7.286;2023-02-17T10:42:46;100058.00;;;12.14;78.74
52855;BME280;38719;51.418;7.286;2023-02-17T10:45:20;100070.09;;;12.21;78.30
52855;BME280;38719;51.418;7.286;2023-02-17T10:47:55;100044.25;;;12.22;78.24
52855;BME280;38719;51.418;7.286;2023-02-17T10:50:25;100038.19;;;12.18;78.11
52855;BME280;38719;51.418;7.286;2023-02-17T10:52:53;100047.31;;;12.32;77.71
52855;BME280;38719;51.418;7.286;2023-02-17T10:55:30;100044.66;;;12.14;79.27
52855;BME280;38719;51.418;7.286;2023-02-17T10:58:04;100049.59;;;12.22;78.00
52855;BME280;38719;51.418;7.286;2023-02-17T11:00:33;100035.75;;;12.31;78.62
52855;BME280;38719;51.418;7.286;2023-02-17T11:03:00;100041.72;;;12.19;79.40
52855;BME280;38719;51.418;7.286;2023-02-17T11:05:31;100053.09;;;12.22;77.78
52855;BME280;38719;51.418;7.286;2023-02-17T11:08:01;100039.75;;;12.22;77.77
52855;BME280;38719;51.418;7.286;2023-02-17T11:10:32;100054.06;;;12.21;78.11
52855;BME280;38719;51.418;7.286;2023-02-17T11:13:01;100041.88;;;12.33;78.04
52855;BME280;38719;51.418;7.286;2023-02-17T11:15:33;100027.69;;;12.33;78.65
52855;BME280;38719;51.418;7.286;2023-02-17T11:18:08;100009.00;;;12.33;78.02
52855;BME280;38719;51.418;7.286;2023-02-17T11:20:37;100013.72;;;12.28;78.82
52855;BME280;38719;51.418;7.286;2023-02-17T11:23:20;100005.13;;;12.38;77.54
52855;BME280;38719;51.418;7.286;2023-02-17T11:26:00;100016.69;;;12.39;77.38
52855;BME280;38719;51.418;7.286;2023-02-17T11:28:28;100003.03;;;12.45;77.25
52855;BME280;38719;51.418;7.286;2023-02-17T11:30:58;99999.25;;;12.49;77.59
52855;BME280;38719;51.418;7.286;2023-02-17T11:33:30;100003.41;;;12.55;77.13
52855;BME280;38719;51.418;7.286;2023-02-17T11:36:00;100011.50;;;12.36;76.56
52855;BME280;38719;51.418;7.286;2023-02-17T11:38:33;100008.91;;;12.52;77.15
52855;BME280;38719;51.418;7.286;2023-02-17T11:41:07;100012.75;;;12.64;76.47
52855;BME280;38719;51.418;7.286;2023-02-17T11:43:37;99999.22;;;12.67;76.47
52855;BME280;38719;51.418;7.286;2023-02-17T11:46:21;100013.88;;;12.76;75.72
52855;BME280;38719;51.418;7.286;2023-02-17T11:49:01;100012.41;;;12.70;76.01
52855;BME280;38719;51.418;7.286;2023-02-17T11:51:38;100002.81;;;12.66;75.51
52855;BME280;38719;51.418;7.286;2023-02-17T11:54:15;100003.47;;;12.71;75.70
52855;BME280;38719;51.418;7.286;2023-02-17T11:56:58;100023.06;;;12.87;75.71
52855;BME280;38719;51.418;7.286;2023-02-17T11:59:37;100030.56;;;12.97;74.01
52855;BME280;38719;51.418;7.286;2023-02-17T12:02:15;100012.31;;;13.05;74.01
52855;BME280;38719;51.418;7.286;2023-02-17T12:04:58;100003.81;;;13.14;74.01
52855;BME280;38719;51.418;7.286;2023-02-17T12:07:57;99985.94;;;13.15;74.25
52855;BME280;38719;51.418;7.286;2023-02-17T12:10:39;100010.09;;;13.13;73.64
52855;BME280;38719;51.418;7.286;2023-02-17T12:13:21;99961.88;;;12.99;73.68
52855;BME280;38719;51.418;7.286;2023-02-17T12:16:01;99974.19;;;13.01;72.73
52855;BME280;38719;51.418;7.286;2023-02-17T12:18:42;99967.63;;;12.91;73.75
52855;BME280;38719;51.418;7.286;2023-02-17T12:21:21;99970.88;;;12.80;74.35
52855;BME280;38719;51.418;7.286;2023-02-17T12:24:04;99969.59;;;12.71;74.42
52855;BME280;38719;51.418;7.286;2023-02-17T12:26:38;99962.09;;;12.78;74.11
52855;BME280;38719;51.418;7.286;2023-02-17T12:29:19;99956.94;;;12.91;73.71
52855;BME280;38719;51.418;7.286;2023-02-17T12:31:58;99968.50;;;13.07;73.75
52855;BME280;38719;51.418;7.286;2023-02-17T12:34:33;99969.09;;;12.97;73.63
52855;BME280;38719;51.418;7.286;2023-02-17T12:37:04;99973.97;;;13.06;73.83
52855;BME280;38719;51.418;7.286;2023-02-17T12:39:40;99989.91;;;13.07;73.84
52855;BME280;38719;51.418;7.286;2023-02-17T12:42:12;99997.81;;;12.93;73.90
52855;BME280;38719;51.418;7.286;2023-02-17T12:44:45;99984.44;;;12.93;74.16
52855;BME280;38719;51.418;7.286;2023-02-17T12:47:15;99971.91;;;12.78;75.20
52855;BME280;38719;51.418;7.286;2023-02-17T12:49:47;99969.75;;;12.84;74.09
52855;BME280;38719;51.418;7.286;2023-02-17T12:52:18;99966.94;;;12.87;74.49
52855;BME280;38719;51.418;7.286;2023-02-17T12:54:54;99950.56;;;12.94;74.57
52855;BME280;38719;51.418;7.286;2023-02-17T12:57:26;99963.66;;;12.82;75.22
52855;BME280;38719;51.418;7.286;2023-02-17T12:59:59;99963.56;;;12.84;75.02
52855;BME280;38719;51.418;7.286;2023-02-17T13:02:27;99975.81;;;12.88;74.92
52855;BME280;38719;51.418;7.286;2023-02-17T13:04:59;99974.03;;;12.88;74.56
52855;BME280;38719;51.418;7.286;2023-02-17T13:07:43;99963.56;;;12.84;75.38
52855;BME280;38719;51.418;7.286;2023-02-17T13:10:20;99979.50;;;12.85;75.37
52855;BME280;38719;51.418;7.286;2023-02-17T13:12:58;99973.50;;;12.98;74.52